Gunnison, CO

5:43 AM MST on December 11, 2016 (GMT -0700)
West Ruby Ave Weather | | Change Station

Elev 7713 ft 38.55 °N, 106.93 °W | Updated 7 seconds ago

Light Snow
Light Snow Mist
30.1 °F
Feels Like 30 °F
N
0.0
Wind Variable Wind from NE
Gusts 0.0 mph

Today
High -- | Low -- °F
--% Chance of Precip.
Yesterday
High -- | Low -- °F
Precip. -- in
Pressure 29.87 in
Visibility 2.0 miles
Clouds Mostly Cloudy 700 ft
Overcast 1100 ft
Windchill 30 °F
Dew Point 24 °F
Humidity 78%
Rainfall 0.00 in
Snow Depth Not available.
7:15 AM 4:46 PM
Waxing Gibbous, 91% visible
SPECI KGUC 111221Z AUTO 00000KT 2SM -SN BR BKN007 OVC011 M02/M02 A2987 RMK AO2 VIS 1 1/2V3 CIG 004V009 P0003 FZRANO
Pressure 29.87 in
Visibility 2.0 miles
Clouds Mostly Cloudy 700 ft
Overcast 1100 ft
Windchill 30 °F
Dew Point 24 °F
Humidity 78%
Rainfall 0.00 in
Snow Depth Not available.
7:15 AM 4:46 PM
Waxing Gibbous, 91% visible
SPECI KGUC 111221Z AUTO 00000KT 2SM -SN BR BKN007 OVC011 M02/M02 A2987 RMK AO2 VIS 1 1/2V3 CIG 004V009 P0003 FZRANO

10-Day Weather Forecast

Almanac

Astronomy

Dec. 11, 2016 Rise Set
Actual Time
Civil Twilight
Nautical Twilight
Astronomical Twilight
Moon
Length of Visible Light
Length of Day
Tomorrow will be .
, % of the Moon is Illuminated

Today's Extremes

State Highs State Lows

Community

WunderPhotos

Upload Photos

1,956,714 photos uploaded!

WunderBlog® & News

Nearby

Air Quality

  Air Quality AQ Index Pollutant
Not available.

Snow Depth

Station Depth Elevation

Earthquake Activity

City Distance Mag. Time & Date
Minimum magnitude displayed is 2.5.

Coastal Water Temperatures

Place Temperature

Stations

Nearby Weather Stations

Station Location Temp. Windchill Dew Point Humidity Wind Precip. Elev Updated Type
                   

Watches & Warnings

There are currently no watches in effect.